createdAt,value
2018-04-28T00:00:28.169Z,63.70
2018-04-28T00:06:22.606Z,65.30
2018-04-28T00:08:55.585Z,65.30
2018-04-28T00:11:29.373Z,68.40
2018-04-28T00:14:02.348Z,68.40
2018-04-28T00:16:49.186Z,70.00
2018-04-28T00:19:26.162Z,71.10
2018-04-28T00:25:10.899Z,71.90
2018-04-28T00:28:04.458Z,71.70
2018-04-28T00:30:39.227Z,71.70
2018-04-28T00:33:14.065Z,73.10
2018-04-28T00:35:47.037Z,74.60
2018-04-28T00:38:20.051Z,75.90
2018-04-28T00:40:53.011Z,77.50
2018-04-28T00:43:28.905Z,78.20
2018-04-28T00:46:17.603Z,77.40
2018-04-28T00:48:56.209Z,77.40
2018-04-28T00:51:33.344Z,74.60
2018-04-28T00:54:11.231Z,73.70
2018-04-28T00:56:52.152Z,74.20
2018-04-28T00:59:28.683Z,73.30
2018-04-28T01:02:01.657Z,73.30
2018-04-28T01:04:43.337Z,73.10
2018-04-28T01:07:29.202Z,73.20
2018-04-28T01:10:08.075Z,73.70
2018-04-28T01:12:41.219Z,73.60
2018-04-28T01:18:24.217Z,74.30
2018-04-28T01:21:02.813Z,75.80
2018-04-28T01:23:38.756Z,79.10
2018-04-28T01:26:21.595Z,80.20
2018-04-28T01:29:05.413Z,79.50
2018-04-28T01:31:40.928Z,80.10
2018-04-28T01:34:22.719Z,80.20
2018-04-28T01:36:57.436Z,81.70
2018-04-28T01:39:44.928Z,81.10
2018-04-28T01:42:20.478Z,81.10
2018-04-28T01:48:25.696Z,80.00
2018-04-28T01:51:12.292Z,80.50
2018-04-28T01:54:16.873Z,80.10
2018-04-28T01:56:53.512Z,80.50
2018-04-28T01:59:28.293Z,80.40
2018-04-28T02:02:08.148Z,80.10
2018-04-28T02:07:50.893Z,78.90
2018-04-28T02:10:37.744Z,79.60
2018-04-28T02:13:12.252Z,79.20
2018-04-28T02:15:48.093Z,78.70
2018-04-28T02:21:30.557Z,78.60
2018-04-28T02:24:15.134Z,79.80
2018-04-28T02:26:50.019Z,79.70
2018-04-28T02:29:38.781Z,79.40
2018-04-28T02:32:12.716Z,80.10
2018-04-28T02:35:08.909Z,79.90
2018-04-28T02:38:15.394Z,79.90
2018-04-28T02:41:09.515Z,80.50
2018-04-28T02:43:49.254Z,80.60
2018-04-28T02:46:39.946Z,80.80
2018-04-28T02:49:19.893Z,80.90
2018-04-28T02:52:05.550Z,82.80
2018-04-28T02:54:39.327Z,85.00
2018-04-28T03:00:20.186Z,89.30
2018-04-28T03:06:36.426Z,90.20
2018-04-28T03:09:11.151Z,90.70
2018-04-28T03:11:44.145Z,90.40
2018-04-28T03:14:18.048Z,90.30
2018-04-28T03:17:10.866Z,90.00
2018-04-28T03:19:44.683Z,90.20
2018-04-28T03:22:19.596Z,90.70
2018-04-28T03:24:55.474Z,91.40
2018-04-28T03:27:49.293Z,92.10
2018-04-28T03:30:29.113Z,92.40
2018-04-28T03:33:09.727Z,92.40
2018-04-28T03:35:53.989Z,93.20
2018-04-28T03:38:33.789Z,93.40
2018-04-28T03:41:13.722Z,93.70
2018-04-28T03:43:46.689Z,94.40
2018-04-28T03:46:26.428Z,94.80
2018-04-28T03:49:08.165Z,95.00
2018-04-28T03:51:53.999Z,95.20
2018-04-28T03:54:45.198Z,95.50
2018-04-28T03:57:38.925Z,95.50
2018-04-28T04:00:23.683Z,95.60
2018-04-28T04:03:20.536Z,95.80
2018-04-28T04:06:16.049Z,96.30
2018-04-28T04:08:52.549Z,96.10
2018-04-28T04:11:31.464Z,96.10
2018-04-28T04:14:12.300Z,95.80
2018-04-28T04:16:51.068Z,95.10
2018-04-28T04:22:39.506Z,93.50
2018-04-28T04:25:19.144Z,93.30
2018-04-28T04:28:04.610Z,92.70
2018-04-28T04:30:45.286Z,92.50
2018-04-28T04:36:51.770Z,90.80
2018-04-28T04:39:30.460Z,90.40
2018-04-28T04:42:09.295Z,90.40
2018-04-28T04:44:47.170Z,90.20
2018-04-28T04:47:31.863Z,90.00
2018-04-28T04:50:15.649Z,89.40
2018-04-28T04:52:57.500Z,89.40
2018-04-28T04:55:35.144Z,87.60
2018-04-28T04:58:33.997Z,87.60
2018-04-28T05:01:21.570Z,85.70
2018-04-28T05:04:15.310Z,84.90
2018-04-28T05:06:57.279Z,83.70
2018-04-28T05:09:52.669Z,81.60
2018-04-28T05:12:28.579Z,82.60
2018-04-28T05:15:14.277Z,77.00
2018-04-28T05:21:14.775Z,78.30
2018-04-28T05:24:14.412Z,78.60
2018-04-28T05:26:54.227Z,78.60
2018-04-28T05:29:37.665Z,77.60
2018-04-28T05:32:28.263Z,75.90
2018-04-28T05:35:36.570Z,75.00
2018-04-28T05:38:36.825Z,73.30
2018-04-28T05:41:21.631Z,73.30
2018-04-28T05:44:17.192Z,72.40
2018-04-28T05:46:54.218Z,71.80
2018-04-28T05:52:50.909Z,68.90
2018-04-28T05:55:45.944Z,64.30
2018-04-28T05:58:42.949Z,61.30
2018-04-28T06:01:30.514Z,61.20
2018-04-28T06:07:17.520Z,55.80
2018-04-28T06:10:20.992Z,53.60
2018-04-28T06:13:11.320Z,53.60
2018-04-28T06:15:53.959Z,50.70
2018-04-28T06:18:40.599Z,49.90
2018-04-28T06:21:14.799Z,47.00
2018-04-28T06:23:55.765Z,45.10
2018-04-28T06:26:29.371Z,45.40
2018-04-28T06:29:04.674Z,46.60
2018-04-28T06:31:39.183Z,46.50
2018-04-28T06:34:13.673Z,48.00
2018-04-28T06:36:48.175Z,48.40
2018-04-28T06:39:21.761Z,49.00
2018-04-28T06:41:56.052Z,47.50
2018-04-28T06:44:30.273Z,47.40
2018-04-28T06:47:03.596Z,49.80
2018-04-28T06:49:36.627Z,51.70
2018-04-28T06:52:10.259Z,53.10
2018-04-28T06:54:43.927Z,54.40
2018-04-28T06:57:17.678Z,51.70
2018-04-28T06:59:53.001Z,49.70
2018-04-28T07:02:26.548Z,49.70
2018-04-28T07:05:01.243Z,50.00
2018-04-28T07:07:35.585Z,46.00
2018-04-28T07:10:10.775Z,45.90
2018-04-28T07:12:44.650Z,44.20
2018-04-28T07:15:18.256Z,44.30
2018-04-28T07:17:51.792Z,44.10
2018-04-28T07:20:26.474Z,42.40
2018-04-28T07:23:00.999Z,42.40
2018-04-28T07:25:34.639Z,42.40
2018-04-28T07:28:08.953Z,42.20
2018-04-28T07:30:43.986Z,41.00
2018-04-28T07:33:18.302Z,42.60
2018-04-28T07:35:51.895Z,42.50
2018-04-28T07:38:26.213Z,41.30
2018-04-28T07:40:59.792Z,41.30
2018-04-28T07:43:33.359Z,40.10
2018-04-28T07:46:07.266Z,41.00
2018-04-28T07:48:40.824Z,41.90
2018-04-28T07:51:16.798Z,40.60
2018-04-28T07:53:51.012Z,40.50
2018-04-28T07:56:25.577Z,43.40
2018-04-28T07:58:59.783Z,41.80
2018-04-28T08:01:33.349Z,41.80
2018-04-28T08:04:06.944Z,43.00
2018-04-28T08:06:41.522Z,42.10
2018-04-28T08:09:15.061Z,41.20
2018-04-28T08:11:49.404Z,40.10
2018-04-28T08:14:22.948Z,40.00
2018-04-28T08:16:56.498Z,41.30
2018-04-28T08:19:30.046Z,42.00
2018-04-28T08:22:04.390Z,39.90
2018-04-28T08:24:38.883Z,39.90
2018-04-28T08:27:13.419Z,41.30
2018-04-28T08:29:47.531Z,37.00
2018-04-28T08:32:21.151Z,37.00
2018-04-28T08:34:55.674Z,38.00
2018-04-28T08:37:29.269Z,38.80
2018-04-28T08:40:02.829Z,38.30
2018-04-28T08:42:36.421Z,36.90
2018-04-28T08:45:10.370Z,37.10
2018-04-28T08:47:44.605Z,34.90
2018-04-28T08:50:18.822Z,38.10
2018-04-28T08:52:59.879Z,35.90
2018-04-28T08:55:36.830Z,36.20
2018-04-28T08:58:21.862Z,34.60
2018-04-28T09:01:09.497Z,34.40
2018-04-28T09:03:50.410Z,33.50
2018-04-28T09:06:24.676Z,35.30
2018-04-28T09:09:00.406Z,35.10
2018-04-28T09:11:34.702Z,35.00
2018-04-28T09:14:14.356Z,35.50
2018-04-28T09:16:49.596Z,32.70
2018-04-28T09:19:33.184Z,30.90
2018-04-28T09:22:09.093Z,31.60
2018-04-28T09:24:44.298Z,31.50
2018-04-28T09:27:18.531Z,31.10
2018-04-28T09:29:52.372Z,31.20
2018-04-28T09:32:27.559Z,32.70
2018-04-28T09:35:01.794Z,30.90
2018-04-28T09:37:36.052Z,30.20
2018-04-28T09:40:11.429Z,31.00
2018-04-28T09:42:45.343Z,29.80
2018-04-28T09:45:19.756Z,30.00
2018-04-28T09:47:53.952Z,31.20
2018-04-28T09:53:36.876Z,29.50
2018-04-28T09:56:12.839Z,31.30
2018-04-28T09:58:47.033Z,31.30
2018-04-28T10:01:21.488Z,31.60
2018-04-28T10:03:56.270Z,31.80
2018-04-28T10:06:39.799Z,33.60
2018-04-28T10:09:15.180Z,32.20
2018-04-28T10:14:39.247Z,31.80
2018-04-28T10:17:13.684Z,29.60
2018-04-28T10:19:54.079Z,30.50
2018-04-28T10:22:28.445Z,30.50
2018-04-28T10:25:03.630Z,32.50
2018-04-28T10:27:37.944Z,32.70
2018-04-28T10:30:12.129Z,33.10
2018-04-28T10:32:47.317Z,33.00
2018-04-28T10:35:22.476Z,33.80
2018-04-28T10:37:56.710Z,36.10
2018-04-28T10:40:31.672Z,34.40
2018-04-28T10:43:05.901Z,33.00
2018-04-28T10:45:40.092Z,33.90
2018-04-28T10:48:16.040Z,34.50
2018-04-28T10:50:50.232Z,34.60
2018-04-28T10:53:25.421Z,34.50
2018-04-28T10:55:59.615Z,35.40
2018-04-28T10:58:33.843Z,35.90
2018-04-28T11:01:08.071Z,36.20
2018-04-28T11:03:43.268Z,37.10
2018-04-28T11:06:18.253Z,37.20
2018-04-28T11:08:52.649Z,37.10
2018-04-28T11:11:26.828Z,35.80
2018-04-28T11:14:01.821Z,37.60
2018-04-28T11:16:36.972Z,37.60
2018-04-28T11:19:10.976Z,37.30
2018-04-28T11:21:46.097Z,38.30
2018-04-28T11:24:20.326Z,36.80
2018-04-28T11:26:55.285Z,36.40
2018-04-28T11:29:30.499Z,35.90
2018-04-28T11:32:04.677Z,36.30
2018-04-28T11:34:38.895Z,37.40
2018-04-28T11:37:13.089Z,38.40
2018-04-28T11:39:47.292Z,38.80
2018-04-28T11:42:21.484Z,39.20
2018-04-28T11:44:56.478Z,36.70
2018-04-28T11:47:30.670Z,36.70
2018-04-28T11:50:04.246Z,37.50
2018-04-28T11:52:39.402Z,39.40
2018-04-28T11:55:13.302Z,39.20
2018-04-28T11:57:47.492Z,40.20
2018-04-28T12:00:21.715Z,40.90
2018-04-28T12:02:55.912Z,36.40
2018-04-28T12:05:30.912Z,35.10
2018-04-28T12:08:05.121Z,35.10
2018-04-28T12:10:40.142Z,35.80
2018-04-28T12:13:15.319Z,35.70
2018-04-28T12:15:51.284Z,36.40
2018-04-28T12:18:26.440Z,36.00
2018-04-28T12:21:01.650Z,36.00
2018-04-28T12:23:36.617Z,39.70
2018-04-28T12:26:11.819Z,39.70
2018-04-28T12:28:46.783Z,41.10
2018-04-28T12:31:21.037Z,40.90
2018-04-28T12:33:55.296Z,41.30
2018-04-28T12:36:29.670Z,40.60
2018-04-28T12:39:03.560Z,41.80
2018-04-28T12:41:37.785Z,42.40
2018-04-28T12:44:12.022Z,41.30
2018-04-28T12:46:47.987Z,41.60
2018-04-28T12:49:22.951Z,37.10
2018-04-28T12:51:57.175Z,37.10
2018-04-28T12:54:31.392Z,36.70
2018-04-28T12:57:06.286Z,37.30
2018-04-28T12:59:41.240Z,38.10
2018-04-28T13:02:17.193Z,39.90
2018-04-28T13:04:51.376Z,39.80
2018-04-28T13:07:27.331Z,43.30
2018-04-28T13:10:03.286Z,42.70
2018-04-28T13:12:39.301Z,43.40
2018-04-28T13:15:14.544Z,43.40
2018-04-28T13:17:48.739Z,44.30
2018-04-28T13:20:22.972Z,44.60
2018-04-28T13:22:57.182Z,44.90
2018-04-28T13:25:31.420Z,45.90
2018-04-28T13:28:06.572Z,45.80
2018-04-28T13:30:41.569Z,47.30
2018-04-28T13:33:16.551Z,44.50
2018-04-28T13:35:50.866Z,44.30
2018-04-28T13:38:26.773Z,43.30
2018-04-28T13:41:01.099Z,43.30
2018-04-28T13:43:36.191Z,44.30
2018-04-28T13:46:10.436Z,44.30
2018-04-28T13:48:45.604Z,44.50
2018-04-28T13:51:21.186Z,44.30
2018-04-28T13:53:55.388Z,44.70
2018-04-28T13:56:29.649Z,45.50
2018-04-28T13:59:04.886Z,45.40
2018-04-28T14:01:39.117Z,46.00
2018-04-28T14:04:13.295Z,46.90
2018-04-28T14:06:47.308Z,47.10
2018-04-28T14:09:20.978Z,47.30
2018-04-28T14:11:56.137Z,48.30
2018-04-28T14:14:30.219Z,47.00
2018-04-28T14:17:04.469Z,46.60
2018-04-28T14:19:38.693Z,45.40
2018-04-28T14:22:12.934Z,46.00
2018-04-28T14:24:47.905Z,47.00
2018-04-28T14:27:21.908Z,46.90
2018-04-28T14:29:55.860Z,46.00
2018-04-28T14:32:30.094Z,45.50
2018-04-28T14:35:03.975Z,46.30
2018-04-28T14:37:38.198Z,46.40
2018-04-28T14:40:12.382Z,47.40
2018-04-28T14:42:47.545Z,46.90
2018-04-28T14:45:21.773Z,46.30
2018-04-28T14:47:55.954Z,46.60
2018-04-28T14:50:31.198Z,47.10
2018-04-28T14:53:05.396Z,47.20
2018-04-28T14:55:39.645Z,48.70
2018-04-28T14:58:13.835Z,49.30
2018-04-28T15:00:48.061Z,49.90
2018-04-28T15:03:22.292Z,50.30
2018-04-28T15:05:57.304Z,51.00
2018-04-28T15:08:31.513Z,50.90
2018-04-28T15:11:06.705Z,51.40
2018-04-28T15:13:40.904Z,51.10
2018-04-28T15:16:15.913Z,51.80
2018-04-28T15:18:50.122Z,51.60
2018-04-28T15:21:25.332Z,52.50
2018-04-28T15:23:59.536Z,51.80
2018-04-28T15:26:34.734Z,51.80
2018-04-28T15:29:08.939Z,51.40
2018-04-28T15:31:43.188Z,51.80
2018-04-28T15:34:17.401Z,51.60
2018-04-28T15:36:52.651Z,51.50
2018-04-28T15:39:26.864Z,51.20
2018-04-28T15:42:02.063Z,51.30
2018-04-28T15:44:37.038Z,50.80
2018-04-28T15:47:11.257Z,50.70
2018-04-28T15:49:45.452Z,50.30
2018-04-28T15:52:19.681Z,50.20
2018-04-28T15:54:53.882Z,49.50
2018-04-28T15:57:30.803Z,50.00
2018-04-28T16:00:04.775Z,50.80
2018-04-28T16:02:39.093Z,50.50
2018-04-28T16:05:13.406Z,50.00
2018-04-28T16:07:47.677Z,48.70
2018-04-28T16:10:21.868Z,49.70
2018-04-28T16:12:55.804Z,49.90
2018-04-28T16:15:30.784Z,49.70
2018-04-28T16:18:06.018Z,49.70
2018-04-28T16:20:40.248Z,50.40
2018-04-28T16:23:14.478Z,50.50
2018-04-28T16:25:48.665Z,50.60
2018-04-28T16:28:23.877Z,50.40
2018-04-28T16:30:59.041Z,50.30
2018-04-28T16:33:33.279Z,49.30
2018-04-28T16:36:07.481Z,51.00
2018-04-28T16:38:42.723Z,53.20
2018-04-28T16:41:16.947Z,53.70
2018-04-28T16:43:51.166Z,52.80
2018-04-28T16:46:25.378Z,53.30
2018-04-28T16:49:00.609Z,54.30
2018-04-28T16:51:34.802Z,54.00
2018-04-28T16:54:08.827Z,53.90
2018-04-28T16:56:43.760Z,53.80
2018-04-28T16:59:18.006Z,53.90
2018-04-28T17:01:52.975Z,54.60
2018-04-28T17:04:28.203Z,54.60
2018-04-28T17:07:12.712Z,54.60
2018-04-28T17:09:47.020Z,54.70
2018-04-28T17:12:21.266Z,54.90
2018-04-28T17:14:55.650Z,55.30
2018-04-28T17:20:44.407Z,54.80
2018-04-28T17:23:18.601Z,55.00
2018-04-28T17:25:55.050Z,56.00
2018-04-28T17:28:29.250Z,56.50
2018-04-28T17:31:03.492Z,57.10
2018-04-28T17:33:37.695Z,57.90
2018-04-28T17:36:11.947Z,58.80
2018-04-28T17:38:46.145Z,59.80
2018-04-28T17:41:21.349Z,60.30
2018-04-28T17:43:55.546Z,60.30
2018-04-28T17:46:29.214Z,60.40
2018-04-28T17:49:02.848Z,61.00
2018-04-28T17:51:36.551Z,61.50
2018-04-28T17:54:10.201Z,61.60
2018-04-28T17:56:44.653Z,62.60
2018-04-28T17:59:19.281Z,62.60
2018-04-28T18:01:53.950Z,63.10
2018-04-28T18:04:27.634Z,63.60
2018-04-28T18:07:01.304Z,63.50
2018-04-28T18:09:35.008Z,63.90
2018-04-28T18:12:08.654Z,63.70
2018-04-28T18:14:43.389Z,63.50
2018-04-28T18:17:18.862Z,63.70
2018-04-28T18:19:53.510Z,63.40
2018-04-28T18:22:27.164Z,63.20
2018-04-28T18:25:02.583Z,63.80
2018-04-28T18:27:36.248Z,63.60
2018-04-28T18:30:09.925Z,64.00
2018-04-28T18:32:43.569Z,64.50
2018-04-28T18:35:17.248Z,64.50
2018-04-28T18:37:50.785Z,65.10
2018-04-28T18:40:25.248Z,66.30
2018-04-28T18:42:58.889Z,66.30
2018-04-28T18:45:33.540Z,66.90
2018-04-28T18:48:08.075Z,67.40
2018-04-28T18:50:43.513Z,70.20
2018-04-28T18:53:17.921Z,71.50
2018-04-28T18:55:51.264Z,71.40
2018-04-28T18:58:24.901Z,72.90
2018-04-28T19:00:58.583Z,74.40
2018-04-28T19:03:32.239Z,75.20
2018-04-28T19:06:08.651Z,76.40
2018-04-28T19:08:43.562Z,76.00
2018-04-28T19:14:11.755Z,78.70
2018-04-28T19:16:47.725Z,81.50
2018-04-28T19:19:21.380Z,81.80
2018-04-28T19:21:56.808Z,83.50
2018-04-28T19:24:32.181Z,84.50
2018-04-28T19:27:06.833Z,84.70
2018-04-28T19:29:40.469Z,86.50
2018-04-28T19:32:15.152Z,90.00
2018-04-28T19:34:56.607Z,90.30
2018-04-28T19:37:35.720Z,90.80
2018-04-28T19:40:10.116Z,91.60
2018-04-28T19:42:45.215Z,91.60
2018-04-28T19:45:18.858Z,91.80
2018-04-28T19:47:52.539Z,92.00
2018-04-28T19:50:26.182Z,92.30
2018-04-28T19:53:00.702Z,92.90
2018-04-28T19:55:35.108Z,93.30
2018-04-28T19:58:10.533Z,93.90
2018-04-28T20:00:44.281Z,93.80
2018-04-28T20:03:17.967Z,94.50
2018-04-28T20:05:52.376Z,95.10
2018-04-28T20:08:26.836Z,95.20
2018-04-28T20:11:00.487Z,95.30
2018-04-28T20:13:34.175Z,95.40
2018-04-28T20:16:07.812Z,95.60
2018-04-28T20:18:41.486Z,95.70
2018-04-28T20:21:15.133Z,96.10
2018-04-28T20:24:00.075Z,96.30
2018-04-28T20:26:35.454Z,96.10
2018-04-28T20:29:09.152Z,96.10
2018-04-28T20:31:42.793Z,96.20
2018-04-28T20:34:16.519Z,96.50
2018-04-28T20:36:50.918Z,96.50
2018-04-28T20:39:24.685Z,96.50
2018-04-28T20:41:58.318Z,96.50
2018-04-28T20:44:31.992Z,96.60
2018-04-28T20:47:05.672Z,96.50
2018-04-28T20:49:40.268Z,96.10
2018-04-28T20:52:13.952Z,96.00
2018-04-28T20:54:48.344Z,96.80
2018-04-28T20:57:22.013Z,96.70
2018-04-28T20:59:57.398Z,97.20
2018-04-28T21:02:32.070Z,97.20
2018-04-28T21:05:05.708Z,97.40
2018-04-28T21:07:39.382Z,97.40
2018-04-28T21:10:14.080Z,97.30
2018-04-28T21:12:48.477Z,97.50
2018-04-28T21:15:27.538Z,97.50
2018-04-28T21:18:01.792Z,97.70
2018-04-28T21:20:42.570Z,98.00
2018-04-28T21:23:17.578Z,98.10
2018-04-28T21:25:51.355Z,98.20
2018-04-28T21:28:27.156Z,98.50
2018-04-28T21:31:01.849Z,98.60
2018-04-28T21:33:35.325Z,98.80
2018-04-28T21:36:08.974Z,98.90
2018-04-28T21:38:42.668Z,98.80
2018-04-28T21:41:16.295Z,98.80
2018-04-28T21:43:49.969Z,99.10
2018-04-28T21:46:23.612Z,99.60
2018-04-28T21:49:02.636Z,99.30
2018-04-28T21:51:41.615Z,99.50
2018-04-28T21:54:18.612Z,99.50
2018-04-28T21:56:57.018Z,99.50
2018-04-28T21:59:31.789Z,99.70
2018-04-28T22:02:05.425Z,99.80
2018-04-28T22:04:40.067Z,99.90
2018-04-28T22:07:14.656Z,99.90
2018-04-28T22:09:48.328Z,99.90
2018-04-28T22:12:39.929Z,99.80
2018-04-28T22:15:13.598Z,99.80
2018-04-28T22:17:56.209Z,99.60
2018-04-28T22:20:38.597Z,99.30
2018-04-28T22:23:16.157Z,99.30
2018-04-28T22:25:50.588Z,98.80
2018-04-28T22:28:24.452Z,98.80
2018-04-28T22:30:58.392Z,98.70
2018-04-28T22:33:33.760Z,98.10
2018-04-28T22:36:09.954Z,98.10
2018-04-28T22:38:45.529Z,98.00
2018-04-28T22:41:20.964Z,97.00
2018-04-28T22:43:54.600Z,97.00
2018-04-28T22:46:28.267Z,96.50
2018-04-28T22:49:01.900Z,96.20
2018-04-28T22:51:36.541Z,96.10
2018-04-28T22:54:10.181Z,96.20
2018-04-28T22:56:43.856Z,96.50
2018-04-28T22:59:17.683Z,96.60
2018-04-28T23:01:51.347Z,96.60
2018-04-28T23:04:24.984Z,96.30
2018-04-28T23:06:58.668Z,96.40
2018-04-28T23:09:33.282Z,96.60
2018-04-28T23:12:07.952Z,96.50
2018-04-28T23:14:42.361Z,96.70
2018-04-28T23:17:16.040Z,96.50
2018-04-28T23:19:49.673Z,96.40
2018-04-28T23:22:24.120Z,96.30
2018-04-28T23:24:57.751Z,96.30
2018-04-28T23:27:31.431Z,96.20
2018-04-28T23:30:04.755Z,95.90
2018-04-28T23:32:38.441Z,95.70
2018-04-28T23:35:12.115Z,95.70
2018-04-28T23:37:45.801Z,95.80
2018-04-28T23:40:21.193Z,95.70
2018-04-28T23:42:54.870Z,95.60
2018-04-28T23:45:28.511Z,95.70
2018-04-28T23:48:02.200Z,95.20
2018-04-28T23:50:35.833Z,95.40
2018-04-28T23:53:10.069Z,96.30
2018-04-28T23:55:43.708Z,96.30
2018-04-28T23:58:17.380Z,96.60
